createdAt,value
2016-09-17T00:00:53.782Z,0
2016-09-17T00:01:53.753Z,0
2016-09-17T00:02:53.708Z,0
2016-09-17T00:03:53.727Z,0
2016-09-17T00:04:53.678Z,0
2016-09-17T00:05:53.696Z,0
2016-09-17T00:06:53.679Z,0
2016-09-17T00:07:53.645Z,0
2016-09-17T00:08:53.626Z,0
2016-09-17T00:09:53.606Z,0
2016-09-17T00:10:53.602Z,0
2016-09-17T00:11:53.604Z,0
2016-09-17T00:12:53.601Z,0
2016-09-17T00:13:53.581Z,0
2016-09-17T00:14:53.562Z,0
2016-09-17T00:15:53.552Z,0
2016-09-17T00:16:53.550Z,0
2016-09-17T00:17:53.506Z,0
2016-09-17T00:18:53.485Z,0
2016-09-17T00:19:53.477Z,0
2016-09-17T00:20:53.483Z,0
2016-09-17T00:21:53.452Z,0
2016-09-17T00:22:53.435Z,0
2016-09-17T00:23:53.416Z,0
2016-09-17T00:24:53.429Z,0
2016-09-17T00:25:53.396Z,0
2016-09-17T00:26:53.371Z,0
2016-09-17T00:27:53.389Z,0
2016-09-17T00:28:53.360Z,0
2016-09-17T00:29:53.331Z,0
2016-09-17T00:30:53.321Z,0
2016-09-17T00:31:53.294Z,0
2016-09-17T00:32:53.273Z,0
2016-09-17T00:33:53.285Z,0
2016-09-17T00:34:53.257Z,0
2016-09-17T00:35:53.255Z,0
2016-09-17T00:36:53.233Z,0
2016-09-17T00:37:53.210Z,0
2016-09-17T00:38:53.196Z,0
2016-09-17T00:39:53.181Z,0
2016-09-17T00:40:53.180Z,0
2016-09-17T00:41:53.142Z,0
2016-09-17T00:42:53.127Z,0
2016-09-17T00:43:53.132Z,0
2016-09-17T00:44:53.116Z,0
2016-09-17T00:45:53.109Z,0
2016-09-17T00:46:53.075Z,0
2016-09-17T00:47:53.073Z,0
2016-09-17T00:48:53.047Z,0
2016-09-17T00:49:53.024Z,0
2016-09-17T00:50:53.043Z,0
2016-09-17T00:51:53.064Z,0
2016-09-17T00:52:53.012Z,0
2016-09-17T00:53:52.965Z,0
2016-09-17T00:54:52.955Z,0
2016-09-17T00:55:52.962Z,0
2016-09-17T00:56:52.933Z,0
2016-09-17T00:57:52.905Z,0
2016-09-17T00:58:52.914Z,0
2016-09-17T00:59:52.897Z,0
2016-09-17T01:00:52.862Z,0
2016-09-17T01:01:52.861Z,0
2016-09-17T01:02:52.850Z,0
2016-09-17T01:03:52.832Z,0
2016-09-17T01:04:52.798Z,0
2016-09-17T01:05:52.809Z,0
2016-09-17T01:06:52.796Z,0
2016-09-17T01:07:52.778Z,0
2016-09-17T01:08:52.750Z,0
2016-09-17T01:09:53.057Z,0
2016-09-17T01:10:52.741Z,0
2016-09-17T01:11:52.716Z,0
2016-09-17T01:12:52.695Z,0
2016-09-17T01:13:52.696Z,0
2016-09-17T01:14:52.666Z,0
2016-09-17T01:15:52.664Z,0
2016-09-17T01:16:52.640Z,0
2016-09-17T01:17:52.641Z,0
2016-09-17T01:18:52.612Z,0
2016-09-17T01:19:52.602Z,0
2016-09-17T01:20:52.565Z,0
2016-09-17T01:21:52.573Z,0
2016-09-17T01:22:52.551Z,0
2016-09-17T01:23:52.550Z,0
2016-09-17T01:24:52.522Z,0
2016-09-17T01:25:52.518Z,0
2016-09-17T01:26:52.473Z,0
2016-09-17T01:27:52.471Z,0
2016-09-17T01:28:52.468Z,0
2016-09-17T01:29:52.477Z,0
2016-09-17T01:30:52.444Z,0
2016-09-17T01:31:52.411Z,0
2016-09-17T01:32:52.398Z,0
2016-09-17T01:33:52.382Z,0
2016-09-17T01:34:52.379Z,0
2016-09-17T01:35:52.355Z,0
2016-09-17T01:36:52.362Z,0
2016-09-17T01:37:52.335Z,0
2016-09-17T01:38:52.304Z,0
2016-09-17T01:39:52.319Z,0
2016-09-17T01:40:52.281Z,0
2016-09-17T01:41:52.291Z,0
2016-09-17T01:42:52.268Z,0
2016-09-17T01:43:52.248Z,0
2016-09-17T01:44:52.243Z,0
2016-09-17T01:45:52.225Z,0
2016-09-17T01:46:52.206Z,0
2016-09-17T01:47:52.176Z,0
2016-09-17T01:48:52.164Z,0
2016-09-17T01:49:52.176Z,0
2016-09-17T01:50:52.140Z,0
2016-09-17T01:51:52.335Z,0
2016-09-17T01:52:52.141Z,0
2016-09-17T01:53:52.081Z,0
2016-09-17T01:54:52.089Z,0
2016-09-17T01:55:52.091Z,0
2016-09-17T01:56:52.065Z,0
2016-09-17T01:57:52.065Z,0
2016-09-17T01:58:52.048Z,0
2016-09-17T01:59:52.023Z,0
2016-09-17T02:00:52.000Z,0
2016-09-17T02:01:52.009Z,0
2016-09-17T02:02:52.002Z,0
2016-09-17T02:03:51.964Z,0
2016-09-17T02:04:51.964Z,0
2016-09-17T02:05:51.931Z,0
2016-09-17T02:06:51.924Z,0
2016-09-17T02:07:51.934Z,0
2016-09-17T02:08:51.897Z,0
2016-09-17T02:09:51.903Z,0
2016-09-17T02:10:51.856Z,0
2016-09-17T02:11:51.875Z,0
2016-09-17T02:12:51.845Z,0
2016-09-17T02:13:51.836Z,0
2016-09-17T02:14:51.828Z,0
2016-09-17T02:15:51.813Z,0
2016-09-17T02:16:51.804Z,0
2016-09-17T02:17:51.748Z,0
2016-09-17T02:18:51.764Z,0
2016-09-17T02:19:51.747Z,0
2016-09-17T02:20:51.731Z,0
2016-09-17T02:21:51.744Z,0
2016-09-17T02:22:51.699Z,0
2016-09-17T02:23:51.690Z,0
2016-09-17T02:24:51.677Z,0
2016-09-17T02:25:51.687Z,0
2016-09-17T02:26:51.648Z,0
2016-09-17T02:27:51.631Z,0
2016-09-17T02:28:51.610Z,0
2016-09-17T02:29:51.580Z,0
2016-09-17T02:30:51.597Z,0
2016-09-17T02:31:51.575Z,0
2016-09-17T02:32:51.539Z,0
2016-09-17T02:33:51.535Z,0
2016-09-17T02:34:51.551Z,0
2016-09-17T02:35:51.528Z,0
2016-09-17T02:36:51.502Z,0
2016-09-17T02:37:51.504Z,0
2016-09-17T02:38:51.483Z,0
2016-09-17T02:39:51.476Z,0
2016-09-17T02:40:51.462Z,0
2016-09-17T02:41:51.447Z,0
2016-09-17T02:42:51.422Z,0
2016-09-17T02:43:51.412Z,0
2016-09-17T02:44:51.385Z,0
2016-09-17T02:45:51.368Z,0
2016-09-17T02:46:51.351Z,0
2016-09-17T02:47:51.381Z,0
2016-09-17T02:48:51.361Z,0
2016-09-17T02:49:51.338Z,0
2016-09-17T02:50:51.316Z,0
2016-09-17T02:51:51.342Z,0
2016-09-17T02:52:51.276Z,0
2016-09-17T02:53:51.277Z,0
2016-09-17T02:54:51.255Z,0
2016-09-17T02:55:51.258Z,0
2016-09-17T02:56:51.215Z,0
2016-09-17T02:57:51.222Z,0
2016-09-17T02:58:51.180Z,0
2016-09-17T02:59:51.158Z,0
2016-09-17T03:00:51.177Z,0
2016-09-17T03:01:51.165Z,0
2016-09-17T03:02:51.120Z,0
2016-09-17T03:03:51.136Z,0
2016-09-17T03:04:51.098Z,0
2016-09-17T03:05:51.100Z,0
2016-09-17T03:06:51.080Z,0
2016-09-17T03:07:51.093Z,0
2016-09-17T03:08:51.071Z,0
2016-09-17T03:09:51.041Z,0
2016-09-17T03:10:51.028Z,0
2016-09-17T03:11:51.017Z,0
2016-09-17T03:12:50.972Z,0
2016-09-17T03:13:50.958Z,0
2016-09-17T03:14:50.970Z,0
2016-09-17T03:15:50.970Z,0
2016-09-17T03:16:50.934Z,0
2016-09-17T03:17:50.898Z,0
2016-09-17T03:18:50.912Z,0
2016-09-17T03:19:50.893Z,0
2016-09-17T03:20:50.883Z,0
2016-09-17T03:21:50.874Z,0
2016-09-17T03:22:50.846Z,0
2016-09-17T03:23:50.836Z,0
2016-09-17T03:24:50.811Z,0
2016-09-17T03:25:50.808Z,0
2016-09-17T03:26:50.774Z,0
2016-09-17T03:27:50.780Z,0
2016-09-17T03:28:50.771Z,0
2016-09-17T03:29:50.795Z,0
2016-09-17T03:30:50.735Z,0
2016-09-17T03:31:50.720Z,0
2016-09-17T03:32:50.733Z,0
2016-09-17T03:33:50.699Z,0
2016-09-17T03:34:50.677Z,0
2016-09-17T03:35:50.660Z,0
2016-09-17T03:36:50.654Z,0
2016-09-17T03:37:50.928Z,0
2016-09-17T03:38:50.613Z,0
2016-09-17T03:39:50.625Z,0
2016-09-17T03:40:50.597Z,0
2016-09-17T03:41:50.602Z,0
2016-09-17T03:42:50.551Z,0
2016-09-17T03:43:50.546Z,0
2016-09-17T03:44:50.543Z,0
2016-09-17T03:45:50.538Z,0
2016-09-17T03:46:50.487Z,0
2016-09-17T03:47:50.799Z,0
2016-09-17T03:48:50.464Z,0
2016-09-17T03:49:50.449Z,0
2016-09-17T03:50:50.461Z,0
2016-09-17T03:51:50.443Z,0
2016-09-17T03:52:50.423Z,0
2016-09-17T03:53:50.405Z,0
2016-09-17T03:54:50.398Z,0
2016-09-17T03:55:50.374Z,0
2016-09-17T03:56:50.366Z,0
2016-09-17T03:57:50.346Z,0
2016-09-17T03:58:50.324Z,0
2016-09-17T03:59:50.352Z,0
2016-09-17T04:00:50.301Z,0
2016-09-17T04:01:50.300Z,0
2016-09-17T04:02:50.300Z,0
2016-09-17T04:03:50.273Z,0
2016-09-17T04:04:50.246Z,0
2016-09-17T04:05:50.237Z,0
2016-09-17T04:06:50.218Z,0
2016-09-17T04:07:50.200Z,0
2016-09-17T04:08:50.205Z,0
2016-09-17T04:09:50.179Z,0
2016-09-17T04:10:50.184Z,0
2016-09-17T04:11:50.155Z,0
2016-09-17T04:12:50.153Z,0
2016-09-17T04:13:50.119Z,0
2016-09-17T04:14:50.139Z,0
2016-09-17T04:15:50.111Z,0
2016-09-17T04:16:50.079Z,0
2016-09-17T04:17:50.070Z,0
2016-09-17T04:18:50.054Z,0
2016-09-17T04:19:50.041Z,0
2016-09-17T04:20:50.037Z,0
2016-09-17T04:21:49.992Z,0
2016-09-17T04:22:50.000Z,0
2016-09-17T04:23:49.982Z,0
2016-09-17T04:24:49.963Z,0
2016-09-17T04:25:49.973Z,0
2016-09-17T04:26:49.947Z,0
2016-09-17T04:27:49.932Z,0
2016-09-17T04:28:49.922Z,0
2016-09-17T04:29:49.887Z,0
2016-09-17T04:30:49.875Z,0
2016-09-17T04:31:49.870Z,0
2016-09-17T04:32:49.844Z,0
2016-09-17T04:33:49.858Z,0
2016-09-17T04:34:49.820Z,0
2016-09-17T04:35:49.813Z,0
2016-09-17T04:36:49.782Z,0
2016-09-17T04:37:49.791Z,0
2016-09-17T04:38:49.763Z,0
2016-09-17T04:39:49.753Z,0
2016-09-17T04:40:49.723Z,4
2016-09-17T04:41:49.729Z,4
2016-09-17T04:42:49.706Z,4
2016-09-17T04:43:49.691Z,0
2016-09-17T04:44:49.674Z,4
2016-09-17T04:45:49.686Z,4
2016-09-17T04:46:49.635Z,8
2016-09-17T04:47:49.622Z,4
2016-09-17T04:48:49.608Z,8
2016-09-17T04:49:49.606Z,12
2016-09-17T04:50:49.592Z,8
2016-09-17T04:51:49.567Z,12
2016-09-17T04:52:49.614Z,16
2016-09-17T04:53:49.538Z,12
2016-09-17T04:54:49.546Z,16
2016-09-17T04:55:49.510Z,16
2016-09-17T04:56:49.508Z,20
2016-09-17T04:57:49.482Z,20
2016-09-17T04:58:49.459Z,20
2016-09-17T04:59:49.461Z,24
2016-09-17T05:00:49.430Z,24
2016-09-17T05:01:49.436Z,28
2016-09-17T05:02:49.402Z,28
2016-09-17T05:03:49.382Z,28
2016-09-17T05:04:49.399Z,32
2016-09-17T05:05:49.340Z,36
2016-09-17T05:06:49.353Z,40
2016-09-17T05:07:49.365Z,44
2016-09-17T05:08:49.307Z,48
2016-09-17T05:09:49.301Z,52
2016-09-17T05:10:49.306Z,60
2016-09-17T05:11:49.282Z,64
2016-09-17T05:12:49.273Z,72
2016-09-17T05:13:49.242Z,76
2016-09-17T05:14:49.235Z,80
2016-09-17T05:15:49.228Z,88
2016-09-17T05:16:49.218Z,92
2016-09-17T05:17:49.201Z,96
2016-09-17T05:18:49.188Z,100
2016-09-17T05:19:49.165Z,108
2016-09-17T05:20:49.161Z,116
2016-09-17T05:21:49.419Z,120
2016-09-17T05:22:49.113Z,128
2016-09-17T05:23:49.091Z,136
2016-09-17T05:24:49.105Z,144
2016-09-17T05:25:49.065Z,152
2016-09-17T05:26:49.076Z,156
2016-09-17T05:27:49.045Z,164
2016-09-17T05:28:49.053Z,172
2016-09-17T05:29:49.038Z,180
2016-09-17T05:30:49.018Z,192
2016-09-17T05:31:48.997Z,200
2016-09-17T05:32:49.272Z,208
2016-09-17T05:33:48.972Z,220
2016-09-17T05:34:48.950Z,232
2016-09-17T05:35:48.955Z,236
2016-09-17T05:36:48.936Z,244
2016-09-17T05:37:48.920Z,260
2016-09-17T05:38:48.928Z,272
2016-09-17T05:39:48.880Z,292
2016-09-17T05:40:48.885Z,304
2016-09-17T05:41:48.893Z,320
2016-09-17T05:42:48.861Z,332
2016-09-17T05:43:49.128Z,344
2016-09-17T05:44:48.800Z,356
2016-09-17T05:45:48.800Z,368
2016-09-17T05:46:48.782Z,392
2016-09-17T05:47:48.801Z,408
2016-09-17T05:48:48.774Z,428
2016-09-17T05:49:48.767Z,440
2016-09-17T05:50:48.743Z,456
2016-09-17T05:51:48.725Z,468
2016-09-17T05:52:48.901Z,484
2016-09-17T05:53:48.686Z,512
2016-09-17T05:54:48.675Z,528
2016-09-17T05:55:48.657Z,548
2016-09-17T05:56:48.660Z,564
2016-09-17T05:57:48.652Z,572
2016-09-17T05:58:48.631Z,580
2016-09-17T05:59:48.604Z,592
2016-09-17T06:00:48.604Z,604
2016-09-17T06:01:48.577Z,608
2016-09-17T06:02:48.561Z,620
2016-09-17T06:03:48.552Z,620
2016-09-17T06:04:48.558Z,632
2016-09-17T06:05:48.524Z,636
2016-09-17T06:06:48.516Z,656
2016-09-17T06:07:48.474Z,672
2016-09-17T06:08:48.512Z,680
2016-09-17T06:09:48.460Z,696
2016-09-17T06:10:48.469Z,708
2016-09-17T06:11:48.420Z,712
2016-09-17T06:12:48.434Z,716
2016-09-17T06:13:48.437Z,736
2016-09-17T06:14:48.391Z,748
2016-09-17T06:15:48.406Z,768
2016-09-17T06:16:48.363Z,780
2016-09-17T06:17:48.334Z,788
2016-09-17T06:18:48.325Z,784
2016-09-17T06:19:48.339Z,796
2016-09-17T06:20:48.314Z,792
2016-09-17T06:21:48.314Z,792
2016-09-17T06:22:48.281Z,796
2016-09-17T06:23:48.291Z,800
2016-09-17T06:24:48.253Z,800
2016-09-17T06:25:48.530Z,816
2016-09-17T06:26:48.229Z,840
2016-09-17T06:27:48.215Z,852
2016-09-17T06:28:48.202Z,860
2016-09-17T06:29:48.176Z,872
2016-09-17T06:30:48.163Z,900
2016-09-17T06:31:48.166Z,928
2016-09-17T06:32:48.134Z,956
2016-09-17T06:33:48.128Z,984
2016-09-17T06:34:48.113Z,1012
2016-09-17T06:35:48.103Z,1036
2016-09-17T06:36:48.092Z,1052
2016-09-17T06:37:48.050Z,1072
2016-09-17T06:38:48.052Z,1092
2016-09-17T06:39:48.088Z,1116
2016-09-17T06:40:48.022Z,1136
2016-09-17T06:41:48.019Z,1152
2016-09-17T06:42:48.004Z,1168
2016-09-17T06:43:47.988Z,1168
2016-09-17T06:44:47.952Z,1196
2016-09-17T06:45:47.958Z,1200
2016-09-17T06:46:47.938Z,1196
2016-09-17T06:47:47.945Z,1196
2016-09-17T06:48:47.928Z,1212
2016-09-17T06:49:47.920Z,1212
2016-09-17T06:50:47.918Z,1180
2016-09-17T06:51:47.881Z,1172
2016-09-17T06:52:47.922Z,1160
2016-09-17T06:53:47.884Z,1164
2016-09-17T06:54:47.826Z,1176
2016-09-17T06:55:47.825Z,1188
2016-09-17T06:56:47.809Z,1192
2016-09-17T06:57:47.791Z,1200
2016-09-17T06:58:47.797Z,1208
2016-09-17T06:59:48.081Z,1220
2016-09-17T07:00:47.745Z,1228
2016-09-17T07:01:47.750Z,1228
2016-09-17T07:02:47.733Z,1260
2016-09-17T07:03:47.730Z,1316
2016-09-17T07:04:47.699Z,1372
2016-09-17T07:05:47.708Z,1420
2016-09-17T07:06:47.665Z,1436
2016-09-17T07:07:47.651Z,1444
2016-09-17T07:08:47.653Z,1440
2016-09-17T07:09:47.631Z,1444
2016-09-17T07:10:47.606Z,1496
2016-09-17T07:11:47.604Z,1544
2016-09-17T07:12:47.578Z,1564
2016-09-17T07:13:47.569Z,1548
2016-09-17T07:14:47.535Z,1540
2016-09-17T07:15:47.538Z,1540
2016-09-17T07:16:47.554Z,1532
2016-09-17T07:17:47.521Z,1524
2016-09-17T07:18:47.518Z,1584
2016-09-17T07:19:47.498Z,1636
2016-09-17T07:20:47.480Z,1656
2016-09-17T07:21:47.475Z,1688
2016-09-17T07:22:47.459Z,1712
2016-09-17T07:23:47.438Z,1724
2016-09-17T07:24:47.442Z,1732
2016-09-17T07:25:47.409Z,1744
2016-09-17T07:26:47.376Z,1764
2016-09-17T07:27:47.389Z,1816
2016-09-17T07:28:47.355Z,1832
2016-09-17T07:29:47.347Z,1864
2016-09-17T07:30:47.343Z,1900
2016-09-17T07:31:47.326Z,1924
2016-09-17T07:32:47.295Z,1960
2016-09-17T07:33:47.283Z,1964
2016-09-17T07:34:47.280Z,1948
2016-09-17T07:35:47.258Z,2004
2016-09-17T07:36:47.288Z,2088
2016-09-17T07:37:47.224Z,2128
2016-09-17T07:38:47.250Z,2168
2016-09-17T07:39:47.541Z,2172
2016-09-17T07:40:47.206Z,2184
2016-09-17T07:41:47.212Z,2196
2016-09-17T07:42:47.187Z,2152
2016-09-17T07:43:47.158Z,2192
2016-09-17T07:44:47.148Z,2208
2016-09-17T07:45:47.136Z,2232
2016-09-17T07:46:47.148Z,2228
2016-09-17T07:47:47.123Z,2228
2016-09-17T07:48:47.109Z,2260
2016-09-17T07:49:47.089Z,2324
2016-09-17T07:50:47.067Z,2392
2016-09-17T07:51:47.064Z,2436
2016-09-17T07:52:47.235Z,2456
2016-09-17T07:53:47.041Z,2464
2016-09-17T07:54:47.012Z,2504
2016-09-17T07:55:47.019Z,2500
2016-09-17T07:56:46.965Z,2520
2016-09-17T07:57:46.952Z,2584
2016-09-17T07:58:46.959Z,2608
2016-09-17T07:59:46.951Z,2640
2016-09-17T08:00:46.934Z,2692
2016-09-17T08:01:46.925Z,2740
2016-09-17T08:02:46.907Z,2776
2016-09-17T08:03:46.911Z,2768
2016-09-17T08:04:46.854Z,2772
2016-09-17T08:05:46.884Z,2784
2016-09-17T08:06:46.861Z,2780
2016-09-17T08:07:46.854Z,2812
2016-09-17T08:08:46.819Z,2820
2016-09-17T08:09:46.790Z,2828
2016-09-17T08:10:46.776Z,2860
2016-09-17T08:11:46.789Z,2884
2016-09-17T08:12:46.786Z,2912
2016-09-17T08:13:46.752Z,2936
2016-09-17T08:14:46.766Z,2964
2016-09-17T08:15:46.735Z,2980
2016-09-17T08:16:47.031Z,2972
2016-09-17T08:17:46.719Z,2976
2016-09-17T08:18:46.693Z,3024
2016-09-17T08:19:46.691Z,3068
2016-09-17T08:20:46.666Z,3076
2016-09-17T08:21:46.679Z,3108
2016-09-17T08:22:46.922Z,3136
2016-09-17T08:23:46.606Z,3140
2016-09-17T08:24:46.603Z,3176
2016-09-17T08:25:46.609Z,3208
2016-09-17T08:26:46.612Z,3276
2016-09-17T08:27:46.561Z,3364
2016-09-17T08:28:46.556Z,3428
2016-09-17T08:29:46.555Z,3544
2016-09-17T08:30:46.537Z,3572
2016-09-17T08:31:46.537Z,3672
2016-09-17T08:32:46.493Z,3748
2016-09-17T08:33:46.485Z,3820
2016-09-17T08:34:46.471Z,3872
2016-09-17T08:35:46.472Z,3968
2016-09-17T08:36:46.484Z,4068
2016-09-17T08:37:46.416Z,4068
2016-09-17T08:38:46.433Z,4120
2016-09-17T08:39:46.419Z,4184
2016-09-17T08:40:46.399Z,4224
2016-09-17T08:41:46.383Z,4292
2016-09-17T08:42:46.367Z,4388
2016-09-17T08:43:46.351Z,4456
2016-09-17T08:44:46.342Z,4464
2016-09-17T08:45:46.331Z,4456
2016-09-17T08:46:46.330Z,4464
2016-09-17T08:47:46.313Z,4484
2016-09-17T08:48:46.324Z,4524
2016-09-17T08:49:46.294Z,4488
2016-09-17T08:50:46.282Z,4496
2016-09-17T08:51:46.255Z,4476
2016-09-17T08:52:46.260Z,4464
2016-09-17T08:53:46.231Z,4540
2016-09-17T08:54:46.216Z,4572
2016-09-17T08:55:46.217Z,4604
2016-09-17T08:56:46.210Z,4732
2016-09-17T08:57:46.193Z,4688
2016-09-17T08:58:46.178Z,4604
2016-09-17T08:59:46.167Z,4640
2016-09-17T09:00:46.152Z,4644
2016-09-17T09:01:46.120Z,4612
2016-09-17T09:02:46.145Z,4596
2016-09-17T09:03:46.130Z,4668
2016-09-17T09:04:46.100Z,4664
2016-09-17T09:05:46.074Z,4556
2016-09-17T09:06:46.054Z,4468
2016-09-17T09:07:46.057Z,4456
2016-09-17T09:08:46.039Z,4468
2016-09-17T09:09:46.023Z,4444
2016-09-17T09:10:46.003Z,4360
2016-09-17T09:11:46.003Z,4280
2016-09-17T09:12:46.000Z,4212
2016-09-17T09:13:45.979Z,4168
2016-09-17T09:14:45.957Z,4156
2016-09-17T09:15:45.973Z,4284
2016-09-17T09:16:45.951Z,4416
2016-09-17T09:17:45.924Z,4500
2016-09-17T09:18:45.918Z,4588
2016-09-17T09:19:45.897Z,4616
2016-09-17T09:20:45.899Z,4548
2016-09-17T09:21:45.900Z,4600
2016-09-17T09:22:45.843Z,4652
2016-09-17T09:23:45.848Z,4684
2016-09-17T09:24:45.847Z,4668
2016-09-17T09:25:45.829Z,4732
2016-09-17T09:26:45.821Z,4864
2016-09-17T09:27:45.768Z,5076
2016-09-17T09:28:45.785Z,5208
2016-09-17T09:29:45.804Z,5248
2016-09-17T09:30:45.772Z,5196
2016-09-17T09:31:45.753Z,5196
2016-09-17T09:32:45.731Z,5144
2016-09-17T09:33:45.725Z,5172
2016-09-17T09:34:45.740Z,5180
2016-09-17T09:35:45.682Z,5124
2016-09-17T09:36:45.696Z,5020
2016-09-17T09:37:45.992Z,4920
2016-09-17T09:38:45.680Z,4840
2016-09-17T09:39:45.672Z,4868
2016-09-17T09:40:45.625Z,4932
2016-09-17T09:41:45.641Z,4908
2016-09-17T09:42:45.638Z,4924
2016-09-17T09:43:45.613Z,4856
2016-09-17T09:44:45.573Z,4832
2016-09-17T09:45:45.581Z,4868
2016-09-17T09:46:45.586Z,4936
2016-09-17T09:47:45.555Z,4856
2016-09-17T09:48:45.559Z,4864
2016-09-17T09:49:45.522Z,4936
2016-09-17T09:50:45.534Z,4984
2016-09-17T09:51:45.499Z,5060
2016-09-17T09:52:45.488Z,4976
2016-09-17T09:53:45.509Z,4956
2016-09-17T09:54:45.456Z,4944
2016-09-17T09:55:45.454Z,4852
2016-09-17T09:56:45.424Z,4928
2016-09-17T09:57:45.436Z,5092
2016-09-17T09:58:45.401Z,5172
2016-09-17T09:59:45.404Z,5184
2016-09-17T10:00:45.386Z,5092
2016-09-17T10:01:45.359Z,5012
2016-09-17T10:02:45.368Z,5028
2016-09-17T10:03:45.335Z,5260
2016-09-17T10:04:45.361Z,5236
2016-09-17T10:05:45.315Z,5116
2016-09-17T10:06:45.319Z,4892
2016-09-17T10:07:45.298Z,4776
2016-09-17T10:08:45.296Z,4648
2016-09-17T10:09:45.270Z,4556
2016-09-17T10:10:45.228Z,4672
2016-09-17T10:11:45.260Z,4848
2016-09-17T10:12:45.216Z,4876
2016-09-17T10:13:45.218Z,4868
2016-09-17T10:14:45.196Z,4828
2016-09-17T10:15:45.507Z,4728
2016-09-17T10:16:45.168Z,4712
2016-09-17T10:17:45.139Z,4704
2016-09-17T10:18:45.151Z,4728
2016-09-17T10:19:45.128Z,4776
2016-09-17T10:20:45.130Z,4864
2016-09-17T10:21:45.122Z,4872
2016-09-17T10:22:45.099Z,4868
2016-09-17T10:23:45.073Z,4840
2016-09-17T10:24:45.071Z,4864
2016-09-17T10:25:45.050Z,4852
2016-09-17T10:26:45.045Z,4852
2016-09-17T10:27:45.022Z,4892
2016-09-17T10:28:45.037Z,4924
2016-09-17T10:29:45.023Z,5120
2016-09-17T10:30:45.019Z,5228
2016-09-17T10:31:44.975Z,5288
2016-09-17T10:32:44.977Z,5296
2016-09-17T10:33:44.975Z,5356
2016-09-17T10:34:44.947Z,5432
2016-09-17T10:35:44.937Z,5404
2016-09-17T10:36:44.901Z,5400
2016-09-17T10:37:44.880Z,5400
2016-09-17T10:38:44.885Z,5492
2016-09-17T10:39:44.871Z,5668
2016-09-17T10:40:44.865Z,5704
2016-09-17T10:41:44.844Z,5732
2016-09-17T10:42:44.831Z,5708
2016-09-17T10:43:44.835Z,5632
2016-09-17T10:44:44.827Z,5784
2016-09-17T10:45:44.823Z,5856
2016-09-17T10:46:44.800Z,5876
2016-09-17T10:47:44.792Z,5988
2016-09-17T10:48:44.765Z,6072
2016-09-17T10:49:44.762Z,6232
2016-09-17T10:50:44.743Z,6288
2016-09-17T10:51:44.723Z,6216
2016-09-17T10:52:44.719Z,6264
2016-09-17T10:53:44.995Z,6456
2016-09-17T10:54:44.689Z,6672
2016-09-17T10:55:44.684Z,6548
2016-09-17T10:56:44.696Z,6572
2016-09-17T10:57:44.657Z,6764
2016-09-17T10:58:44.637Z,6628
2016-09-17T10:59:44.635Z,6360
2016-09-17T11:00:44.615Z,6108
2016-09-17T11:01:44.624Z,6100
2016-09-17T11:02:44.600Z,6264
2016-09-17T11:03:44.581Z,6308
2016-09-17T11:04:44.546Z,6272
2016-09-17T11:05:44.555Z,6384
2016-09-17T11:06:44.535Z,6512
2016-09-17T11:07:44.526Z,6492
2016-09-17T11:08:44.815Z,6496
2016-09-17T11:09:44.494Z,6404
2016-09-17T11:10:44.519Z,6264
2016-09-17T11:11:44.503Z,6144
2016-09-17T11:12:44.479Z,6184
2016-09-17T11:13:44.450Z,6248
2016-09-17T11:14:44.434Z,6368
2016-09-17T11:15:44.417Z,6620
2016-09-17T11:16:44.426Z,6900
2016-09-17T11:17:44.419Z,6948
2016-09-17T11:18:44.400Z,6884
2016-09-17T11:19:44.366Z,6768
2016-09-17T11:20:44.352Z,6788
2016-09-17T11:21:44.659Z,6672
2016-09-17T11:22:44.668Z,6556
2016-09-17T11:23:44.338Z,6708
2016-09-17T11:24:44.321Z,6924
2016-09-17T11:25:44.318Z,7020
2016-09-17T11:26:44.320Z,6976
2016-09-17T11:27:44.274Z,6844
2016-09-17T11:28:44.260Z,6812
2016-09-17T11:29:44.245Z,6856
2016-09-17T11:30:44.217Z,6944
2016-09-17T11:31:44.227Z,6880
2016-09-17T11:32:44.195Z,6844
2016-09-17T11:33:44.187Z,6764
2016-09-17T11:34:44.168Z,6440
2016-09-17T11:35:44.163Z,6072
2016-09-17T11:36:44.170Z,6068
2016-09-17T11:37:44.167Z,6256
2016-09-17T11:38:44.138Z,6312
2016-09-17T11:39:44.101Z,6516
2016-09-17T11:40:44.124Z,6532
2016-09-17T11:41:44.117Z,6592
2016-09-17T11:42:44.069Z,6556
2016-09-17T11:43:44.069Z,6372
2016-09-17T11:44:44.052Z,6396
2016-09-17T11:45:44.035Z,6296
2016-09-17T11:46:44.017Z,6440
2016-09-17T11:47:44.007Z,6576
2016-09-17T11:48:44.003Z,6472
2016-09-17T11:49:43.988Z,6364
2016-09-17T11:50:43.990Z,6068
2016-09-17T11:51:43.992Z,5920
2016-09-17T11:52:43.988Z,5960
2016-09-17T11:53:43.990Z,6116
2016-09-17T11:54:43.935Z,6324
2016-09-17T11:55:43.952Z,6288
2016-09-17T11:56:43.918Z,6084
2016-09-17T11:57:43.887Z,6056
2016-09-17T11:58:43.883Z,6100
2016-09-17T11:59:43.875Z,5816
2016-09-17T12:00:43.882Z,5740
2016-09-17T12:01:43.850Z,5968
2016-09-17T12:02:43.832Z,6328
2016-09-17T12:03:43.847Z,6136
2016-09-17T12:04:43.792Z,6132
2016-09-17T12:05:43.790Z,6100
2016-09-17T12:06:43.773Z,6024
2016-09-17T12:07:43.790Z,6236
2016-09-17T12:08:43.751Z,6184
2016-09-17T12:09:43.732Z,6156
2016-09-17T12:10:43.749Z,6180
2016-09-17T12:11:43.707Z,6072
2016-09-17T12:12:43.727Z,5920
2016-09-17T12:13:43.696Z,5736
2016-09-17T12:14:43.672Z,5864
2016-09-17T12:15:43.649Z,6092
2016-09-17T12:16:43.643Z,6120
2016-09-17T12:17:43.629Z,5836
2016-09-17T12:18:43.597Z,5892
2016-09-17T12:19:43.609Z,6064
2016-09-17T12:20:43.592Z,6032
2016-09-17T12:21:43.573Z,5996
2016-09-17T12:22:43.541Z,5820
2016-09-17T12:23:43.569Z,5772
2016-09-17T12:24:43.521Z,6052
2016-09-17T12:25:43.536Z,6196
2016-09-17T12:26:43.505Z,6312
2016-09-17T12:27:43.526Z,6336
2016-09-17T12:28:43.504Z,6468
2016-09-17T12:29:43.467Z,6468
2016-09-17T12:30:43.464Z,6468
2016-09-17T12:31:43.472Z,6348
2016-09-17T12:32:43.746Z,6424
2016-09-17T12:33:43.420Z,6668
2016-09-17T12:34:43.403Z,6732
2016-09-17T12:35:43.396Z,6664
2016-09-17T12:36:43.387Z,6836
2016-09-17T12:37:43.394Z,6940
2016-09-17T12:38:43.369Z,6836
2016-09-17T12:39:43.337Z,6812
2016-09-17T12:40:43.322Z,6916
2016-09-17T12:41:43.317Z,6952
2016-09-17T12:42:43.305Z,7032
2016-09-17T12:43:43.295Z,7204
2016-09-17T12:44:43.261Z,7236
2016-09-17T12:45:43.251Z,7252
2016-09-17T12:46:43.259Z,7144
2016-09-17T12:47:43.216Z,7084
2016-09-17T12:48:43.228Z,7048
2016-09-17T12:49:43.227Z,7100
2016-09-17T12:50:43.211Z,7056
2016-09-17T12:51:43.191Z,7104
2016-09-17T12:52:43.176Z,6884
2016-09-17T12:53:43.222Z,6868
2016-09-17T12:54:43.145Z,6924
2016-09-17T12:55:43.120Z,6840
2016-09-17T12:56:43.142Z,6792
2016-09-17T12:57:43.119Z,6664
2016-09-17T12:58:43.091Z,6320
2016-09-17T12:59:43.079Z,6212
2016-09-17T13:00:43.079Z,6160
2016-09-17T13:01:43.053Z,6040
2016-09-17T13:02:43.039Z,5832
2016-09-17T13:03:43.050Z,5572
2016-09-17T13:04:42.995Z,5420
2016-09-17T13:05:42.987Z,5324
2016-09-17T13:06:43.000Z,5188
2016-09-17T13:07:43.049Z,5188
2016-09-17T13:08:42.942Z,5228
2016-09-17T13:09:42.968Z,5152
2016-09-17T13:10:42.939Z,5288
2016-09-17T13:11:42.926Z,5496
2016-09-17T13:12:42.918Z,5696
2016-09-17T13:13:42.910Z,5796
2016-09-17T13:14:42.896Z,5848
2016-09-17T13:15:42.876Z,5804
2016-09-17T13:16:42.851Z,5752
2016-09-17T13:17:42.851Z,5584
2016-09-17T13:18:42.816Z,5532
2016-09-17T13:19:42.819Z,5428
2016-09-17T13:20:42.810Z,5184
2016-09-17T13:21:42.780Z,4972
2016-09-17T13:22:42.776Z,4996
2016-09-17T13:23:42.769Z,5232
2016-09-17T13:24:42.758Z,5400
2016-09-17T13:25:42.743Z,5140
2016-09-17T13:26:42.742Z,4880
2016-09-17T13:27:42.722Z,4700
2016-09-17T13:28:42.745Z,4724
2016-09-17T13:29:42.713Z,4992
2016-09-17T13:30:42.672Z,5836
2016-09-17T13:31:42.680Z,6312
2016-09-17T13:32:42.655Z,6384
2016-09-17T13:33:42.644Z,6536
2016-09-17T13:34:42.645Z,6840
2016-09-17T13:35:42.609Z,6832
2016-09-17T13:36:42.625Z,6720
2016-09-17T13:37:42.600Z,6360
2016-09-17T13:38:42.571Z,6368
2016-09-17T13:39:42.577Z,6128
2016-09-17T13:40:42.579Z,5808
2016-09-17T13:41:42.538Z,5404
2016-09-17T13:42:42.517Z,4908
2016-09-17T13:43:42.511Z,4672
2016-09-17T13:44:42.481Z,4604
2016-09-17T13:45:42.472Z,4740
2016-09-17T13:46:42.476Z,4952
2016-09-17T13:47:42.466Z,5036
2016-09-17T13:48:42.432Z,5068
2016-09-17T13:49:42.400Z,5112
2016-09-17T13:50:42.418Z,4932
2016-09-17T13:51:42.412Z,4720